Flight Track Log - Related Links

Times and Time Zones

All times are in EDT time to prevent confusion due to time zone crossing. See the ASQ5958 flight status page for this flight to view local times or setup timezone preferences in your user account.

Time Position Orientation Groundspeed Altitude Reporting Facility
EDT Latitude Longitude Course Direction KTS MPH feet Rate Location/Type
Sun 06:36:22 AM 35.1981 -80.9644 229° Southwest 175 201 1,700  Level FAA TRACON SMA TRACON (SMA)
Sun 06:36:43 AM 35.1864 -80.9811 229° Southwest 168 193 2,600 2,400 Climbing FAA TRACON SMA TRACON (SMA)
Sun 06:37:02 AM 35.1767 -80.9944 228° Southwest 170 196 3,300 1,846 Climbing FAA TRACON SMA TRACON (SMA)
Sun 06:37:22 AM 35.1717 -81.0100 249° West 183 211 3,800 2,100 Climbing FAA TRACON SMA TRACON (SMA)
Sun 06:37:42 AM 35.1694 -81.0375 264° West 193 222 4,700 2,400 Climbing FAA TRACON SMA TRACON (SMA)
Sun 06:38:02 AM 35.1692 -81.0581 269° West 196 226 5,400 1,800 Climbing FAA TRACON SMA TRACON (SMA)
Sun 06:38:22 AM 35.1764 -81.0764 296° West 206 237 5,900 1,200 Climbing FAA TRACON SMA TRACON (SMA)
Sun 06:38:42 AM 35.1928 -81.1014 309° West 241 277 6,200 1,200 Climbing FAA TRACON SMA TRACON (SMA)
Sun 06:39:02 AM 35.2058 -81.1231 306° West 252 290 6,700 1,333 Climbing FAA TRACON SMA TRACON (SMA)
Sun 06:39:18 AM 35.2125 -81.1358 303° West 257 296 7,000 2,053 Climbing Atlanta Center
Sun 06:40:18 AM 35.2719 -81.1794 329° Northwest 283 326 9,300 1,900 Climbing Atlanta Center
Sun 06:41:18 AM 35.3439 -81.1336 27° Northeast 272 313 10,800 1,300 Climbing Atlanta Center
Sun 06:42:18 AM 35.4258 -81.0797 28° Northeast 305 351 11,900 1,000 Climbing Atlanta Center
Sun 06:43:18 AM 35.5100 -81.0231 29° Northeast 333 383 12,800 1,000 Climbing Atlanta Center
Sun 06:44:18 AM 35.6022 -81.0350 354° North 331 381 13,900 1,050 Climbing Atlanta Center
Sun 06:45:18 AM 35.6892 -81.0958 330° Northwest 325 374 14,900 1,000 Climbing Atlanta Center
Sun 06:46:18 AM 35.7803 -81.1539 333° Northwest 346 398 15,900 1,050 Climbing Atlanta Center
Sun 06:47:18 AM 35.8672 -81.2150 330° Northwest 362 417 17,000 1,050 Climbing Atlanta Center
Sun 06:48:18 AM 35.9503 -81.2889 324° Northwest 362 417 18,000 850 Climbing Atlanta Center
Sun 06:49:18 AM 36.0292 -81.3711 320° Northwest 367 422 18,700 850 Climbing Atlanta Center
Sun 06:50:18 AM 36.1061 -81.4558 318° Northwest 367 422 19,700 1,050 Climbing Atlanta Center
Sun 06:51:18 AM 36.1831 -81.5383 319° Northwest 372 428 20,800 1,050 Climbing Atlanta Center
Sun 06:52:18 AM 36.2639 -81.6233 320° Northwest 372 428 21,800 1,000 Climbing Atlanta Center
Sun 06:53:18 AM 36.3492 -81.7161 319° Northwest 372 428 22,800 1,207 Climbing Atlanta Center
Sun 06:55:02 AM 36.4817 -81.8597 319° Northwest 368 423 25,100 1,345 Climbing Indianapolis Center
Sun 06:56:03 AM 36.5556 -81.9411 319° Northwest 357 411 26,500 1,240 Climbing Indianapolis Center
Sun 06:57:03 AM 36.6281 -82.0200 319° Northwest 349 402 27,600 1,041 Climbing Indianapolis Center
Sun 06:58:04 AM 36.7008 -82.0997 319° Northwest 348 400 28,600 992 Climbing Indianapolis Center
Sun 06:59:04 AM 36.7733 -82.1772 319° Northwest 346 398 29,600 694 Climbing Indianapolis Center
Sun 07:00:05 AM 36.8475 -82.2589 319° Northwest 353 406 30,000 198 Climbing Indianapolis Center
Sun 07:01:05 AM 36.9247 -82.3447 318° Northwest 367 422 30,000  Level Indianapolis Center
Sun 07:02:06 AM 37.0075 -82.4361 319° Northwest 393 452 30,000  Level Indianapolis Center
Sun 07:03:07 AM 37.0919 -82.5300 318° Northwest 405 466 30,000  Level Indianapolis Center
Sun 07:04:07 AM 37.1783 -82.6253 319° Northwest 415 478 30,000  Level Indianapolis Center
Sun 07:05:08 AM 37.2647 -82.7219 318° Northwest 418 481 30,000  Level Indianapolis Center
Sun 07:06:08 AM 37.3508 -82.8181 318° Northwest 417 480 30,000  Level Indianapolis Center
Sun 07:07:09 AM 37.4500 -82.9300 318° Northwest 413 475 30,000  Level Indianapolis Center
Sun 07:08:10 AM 37.5356 -83.0269 318° Northwest 414 476 30,000  Level Indianapolis Center
Sun 07:09:11 AM 37.6219 -83.1239 318° Northwest 416 479 30,000  Level Indianapolis Center
Sun 07:10:11 AM 37.7061 -83.2200 318° Northwest 410 472 30,000  Level Indianapolis Center
Sun 07:11:12 AM 37.7822 -83.3244 313° West 409 471 30,000  Level Indianapolis Center
Sun 07:12:13 AM 37.8100 -83.4558 285° West 390 449 30,000  Level Indianapolis Center
Sun 07:13:13 AM 37.8394 -83.5892 286° West 392 451 30,000  Level Indianapolis Center
Sun 07:14:14 AM 37.8689 -83.7214 286° West 392 451 30,000  Level Indianapolis Center
Sun 07:15:15 AM 37.8989 -83.8561 286° West 396 456 30,000  Level Indianapolis Center
Sun 07:16:16 AM 37.9283 -83.9878 286° West 392 451 30,000  Level Indianapolis Center
Sun 07:17:17 AM 37.9583 -84.1214 286° West 394 453 30,000  Level Indianapolis Center
Sun 07:18:17 AM 37.9886 -84.2550 286° West 395 455 30,000  Level Indianapolis Center
Sun 07:19:18 AM 38.0389 -84.3772 298° West 400 460 30,000  Level Indianapolis Center
Sun 07:20:19 AM 38.1428 -84.4489 332° Northwest 424 488 30,000  Level Indianapolis Center
Sun 07:21:20 AM 38.2553 -84.5042 339° North 431 496 30,000  Level Indianapolis Center
Sun 07:22:21 AM 38.3675 -84.5592 339° North 430 495 30,000  Level Indianapolis Center
Sun 07:23:22 AM 38.4978 -84.6264 338° Northwest 429 494 30,000  Level Indianapolis Center
Sun 07:24:23 AM 38.6086 -84.6831 338° Northwest 426 490 30,000  Level Indianapolis Center
Sun 07:25:24 AM 38.7119 -84.7361 338° Northwest 431 496 30,000  Level Indianapolis Center
Sun 07:26:25 AM 38.8228 -84.7947 338° Northwest 429 494 30,000  Level Indianapolis Center
Sun 07:27:25 AM 38.9322 -84.8500 339° North 433 498 30,000  Level Indianapolis Center
Sun 07:28:26 AM 39.0483 -84.9117 338° Northwest 433 498 30,000  Level Indianapolis Center
Sun 07:29:27 AM 39.1564 -84.9758 335° Northwest 424 488 30,000  Level Indianapolis Center
Sun 07:30:28 AM 39.2636 -85.0433 334° Northwest 425 489 30,000 -885 Level Indianapolis Center
Sun 07:31:29 AM 39.3719 -85.1108 334° Northwest 427 491 28,200 -984 Descending Indianapolis Center
Sun 07:32:30 AM 39.4853 -85.1714 338° Northwest 436 502 28,000 -98 Descending Indianapolis Center
Sun 07:33:31 AM 39.5983 -85.2269 339° North 431 496 28,000  Level Indianapolis Center
Sun 07:34:32 AM 39.7311 -85.2944 339° North 435 501 28,000 -541 Level Indianapolis Center
Sun 07:35:33 AM 39.8461 -85.3517 339° North 439 505 26,900 -984 Descending Indianapolis Center
Sun 07:36:34 AM 39.9619 -85.4094 339° North 443 510 26,000 -443 Descending Indianapolis Center
Sun 07:37:35 AM 40.0725 -85.4658 339° North 429 494 26,000  Level Indianapolis Center
Sun 07:38:31 AM 40.1653 -85.5108 340° North 426 490 26,000  Level Chicago Center
Sun 07:39:32 AM 40.2778 -85.5675 339° North 430 495 26,000 -639 Level Chicago Center
Sun 07:40:33 AM 40.3914 -85.6256 339° North 433 498 24,700 -984 Descending Chicago Center
Sun 07:41:34 AM 40.4978 -85.6800 339° North 417 480 24,000 -541 Descending Chicago Center
Sun 07:42:35 AM 40.6094 -85.7297 341° North 420 483 23,600 -984 Descending Chicago Center
Sun 07:43:36 AM 40.7297 -85.7831 341° North 396 456 22,000 -787 Descending Chicago Center
Sun 07:44:37 AM 40.8325 -85.8300 341° North 391 450 22,000  Level Chicago Center
Sun 07:45:38 AM 40.9392 -85.8772 342° North 402 463 22,000  Level Chicago Center
Sun 07:46:38 AM 41.0453 -85.9269 341° North 405 466 22,000  Level Chicago Center
Sun 07:47:39 AM 41.1436 -85.9886 335° Northwest 394 453 22,000 -197 Level Chicago Center
Sun 07:48:40 AM 41.2125 -86.0928 311° West 375 432 21,600 -1,180 Descending Chicago Center
Sun 07:49:41 AM 41.2767 -86.1933 310° West 359 413 19,600 -2,016 Descending Chicago Center
Sun 07:50:42 AM 41.3394 -86.2914 310° West 349 402 17,500 -2,016 Descending Chicago Center
Sun 07:51:43 AM 41.4000 -86.3872 310° West 338 389 15,500 -2,016 Descending Chicago Center
Sun 07:52:44 AM 41.4597 -86.4814 310° West 334 384 13,400 -1,672 Descending Chicago Center
Sun 07:53:45 AM 41.5172 -86.5722 310° West 323 372 12,100 -639 Descending Chicago Center
Sun 07:54:46 AM 41.5756 -86.6653 310° West 326 375 12,100 -49 Level Chicago Center
Sun 07:55:47 AM 41.6386 -86.7636 311° West 325 374 12,000  Descending Chicago Center
Sun 07:56:48 AM 41.7264 -86.8017 342° North 350 403 12,100 49 Climbing Chicago Center
Sun 07:57:49 AM 41.8214 -86.8208 351° North 348 400 12,100  Level Chicago Center
Sun 07:58:50 AM 41.9019 -86.8694 336° Northwest 329 379 12,100 -49 Level Chicago Center
Sun 07:59:51 AM 41.9736 -86.9683 314° West 308 354 12,000 -836 Descending Chicago Center
Sun 08:00:52 AM 41.9869 -87.0603 281° West 268 308 10,400 -1,328 Descending Chicago Center
Sun 08:01:53 AM 41.9789 -87.1472 263° West 237 273 9,300 -1,033 Descending Chicago Center
Sun 08:02:54 AM 41.9858 -87.2358 276° West 239 275 8,300 -984 Descending Chicago Center
Sun 08:03:55 AM 41.9803 -87.3214 265° West 232 267 7,300 -729 Descending Chicago Center
Sun 08:04:41 AM 41.9833 -87.4000 273° West 231 266 7,000 -283 Descending Chicago TRACON
Sun 08:05:41 AM 41.9833 -87.4833 270° West 228 262 6,800 -684 Descending Chicago TRACON
Sun 08:06:35 AM 41.9833 -87.5500 270° West 214 246 5,700 -1,100 Descending Chicago TRACON
Sun 08:07:41 AM 41.9833 -87.6333 270° West 170 196 4,600 -992 Descending Chicago TRACON
Sun 08:08:36 AM 41.9833 -87.6833 270° West 173 199 3,700 -939 Descending Chicago TRACON
Sun 08:09:36 AM 41.9833 -87.7500 270° West 168 193 2,800 -905 Descending Chicago TRACON
Sun 08:10:42 AM 41.9833 -87.8167 270° West 153 176 1,800 -762 Descending Chicago TRACON
Sun 08:11:42 AM 41.9833 -87.8500 270° West 119 137 1,200 -600 Descending Chicago TRACON
Sun 08:14:00 AM 41.9667 -87.9000 270° West  Level FlightAware Approximate

Login

Don't have an account? Register now (free) for customized features, flight alerts, and more!